createdAt,value
2022-12-05T00:02:27.178Z,2.58
2022-12-05T00:04:56.715Z,2.52
2022-12-05T00:07:25.148Z,2.47
2022-12-05T00:09:54.980Z,2.48
2022-12-05T00:12:23.624Z,2.48
2022-12-05T00:14:52.073Z,2.45
2022-12-05T00:17:20.330Z,2.42
2022-12-05T00:19:52.305Z,2.49
2022-12-05T00:22:25.014Z,2.48
2022-12-05T00:24:55.006Z,2.56
2022-12-05T00:27:23.239Z,2.51
2022-12-05T00:29:51.506Z,2.45
2022-12-05T00:32:19.861Z,2.46
2022-12-05T00:34:48.271Z,2.44
2022-12-05T00:37:16.549Z,2.46
2022-12-05T00:39:45.173Z,2.43
2022-12-05T00:42:15.205Z,2.44
2022-12-05T00:44:43.838Z,2.51
2022-12-05T00:47:12.169Z,2.51
2022-12-05T00:49:40.430Z,2.49
2022-12-05T00:52:08.878Z,2.58
2022-12-05T00:54:37.151Z,2.57
2022-12-05T00:57:06.537Z,2.54
2022-12-05T00:59:36.246Z,2.45
2022-12-05T01:02:04.996Z,2.42
2022-12-05T01:04:33.284Z,2.53
2022-12-05T01:07:01.566Z,2.34
2022-12-05T01:09:31.306Z,2.28
2022-12-05T01:11:59.711Z,2.34
2022-12-05T01:14:28.610Z,2.20
2022-12-05T01:16:58.818Z,2.21
2022-12-05T01:19:28.743Z,2.25
2022-12-05T01:21:58.063Z,2.36
2022-12-05T01:24:27.669Z,2.37
2022-12-05T01:26:56.883Z,2.41
2022-12-05T01:29:25.945Z,2.38
2022-12-05T01:31:54.756Z,2.43
2022-12-05T01:34:24.799Z,2.46
2022-12-05T01:36:53.182Z,2.47
2022-12-05T01:39:21.489Z,2.44
2022-12-05T01:41:50.848Z,2.48
2022-12-05T01:44:56.453Z,2.41
2022-12-05T01:47:26.554Z,2.49
2022-12-05T01:49:57.430Z,2.48
2022-12-05T01:52:28.479Z,2.39
2022-12-05T01:54:59.496Z,2.41
2022-12-05T01:57:30.143Z,2.46
2022-12-05T02:00:02.171Z,2.68
2022-12-05T02:02:43.403Z,2.63
2022-12-05T02:05:16.989Z,2.58
2022-12-05T02:07:45.516Z,2.44
2022-12-05T02:10:14.284Z,2.43
2022-12-05T02:12:43.252Z,2.37
2022-12-05T02:15:22.392Z,2.42
2022-12-05T02:17:56.950Z,2.38
2022-12-05T02:20:34.928Z,2.43
2022-12-05T02:23:40.155Z,2.65
2022-12-05T02:26:39.292Z,2.76
2022-12-05T02:29:39.483Z,2.65
2022-12-05T02:32:12.640Z,2.59
2022-12-05T02:34:48.384Z,2.63
2022-12-05T02:37:22.176Z,2.56
2022-12-05T02:39:55.288Z,2.51
2022-12-05T02:42:28.234Z,2.45
2022-12-05T02:44:59.288Z,2.41
2022-12-05T02:47:32.207Z,2.32
2022-12-05T02:50:01.059Z,2.33
2022-12-05T02:52:30.379Z,2.37
2022-12-05T02:54:59.387Z,2.42
2022-12-05T02:57:27.642Z,2.52
2022-12-05T02:59:56.135Z,2.54
2022-12-05T03:02:26.306Z,2.81
2022-12-05T03:04:58.015Z,2.70
2022-12-05T03:07:28.187Z,2.63
2022-12-05T03:09:58.354Z,2.61
2022-12-05T03:12:28.974Z,2.62
2022-12-05T03:14:59.488Z,2.61
2022-12-05T03:17:35.164Z,2.61
2022-12-05T03:20:08.876Z,2.65
2022-12-05T03:22:41.308Z,2.67
2022-12-05T03:25:10.070Z,2.65
2022-12-05T03:27:48.045Z,2.59
2022-12-05T03:30:17.854Z,2.61
2022-12-05T03:32:51.182Z,2.58
2022-12-05T03:35:25.008Z,2.52
2022-12-05T03:37:56.162Z,2.58
2022-12-05T03:40:29.129Z,2.48
2022-12-05T03:43:02.856Z,2.47
2022-12-05T03:45:36.038Z,2.53
2022-12-05T03:48:12.426Z,2.47
2022-12-05T03:50:44.206Z,2.48
2022-12-05T03:53:19.938Z,2.40
2022-12-05T03:55:52.431Z,2.41
2022-12-05T03:58:24.856Z,2.38
2022-12-05T04:00:54.338Z,2.50
2022-12-05T04:03:26.537Z,2.52
2022-12-05T04:05:58.138Z,2.40
2022-12-05T04:08:29.001Z,2.31
2022-12-05T04:11:01.822Z,2.19
2022-12-05T04:13:34.837Z,2.24
2022-12-05T04:16:23.850Z,2.39
2022-12-05T04:18:55.770Z,2.49
2022-12-05T04:21:39.184Z,2.32
2022-12-05T04:24:27.960Z,2.28
2022-12-05T04:27:08.035Z,2.36
2022-12-05T04:29:39.301Z,2.46
2022-12-05T04:32:10.818Z,2.51
2022-12-05T04:34:39.263Z,2.54
2022-12-05T04:37:12.659Z,2.61
2022-12-05T04:39:47.167Z,2.59
2022-12-05T04:42:17.500Z,2.55
2022-12-05T04:44:49.075Z,2.48
2022-12-05T04:47:19.223Z,2.37
2022-12-05T04:49:52.175Z,2.49
2022-12-05T04:52:23.994Z,2.52
2022-12-05T04:54:54.707Z,2.59
2022-12-05T04:57:25.877Z,2.53
2022-12-05T04:59:54.334Z,2.61
2022-12-05T05:02:26.476Z,2.58
2022-12-05T05:04:56.229Z,2.54
2022-12-05T05:07:26.241Z,2.57
2022-12-05T05:09:54.536Z,2.55
2022-12-05T05:12:22.836Z,2.54
2022-12-05T05:14:51.102Z,2.55
2022-12-05T05:17:19.981Z,2.57
2022-12-05T05:19:49.045Z,2.54
2022-12-05T05:22:17.622Z,2.55
2022-12-05T05:24:47.633Z,2.58
2022-12-05T05:27:15.997Z,2.50
2022-12-05T05:29:44.503Z,2.54
2022-12-05T05:32:12.785Z,2.57
2022-12-05T05:34:41.372Z,2.60
2022-12-05T05:37:09.838Z,2.56
2022-12-05T05:39:38.160Z,2.60
2022-12-05T05:42:07.960Z,2.53
2022-12-05T05:44:36.471Z,2.52
2022-12-05T05:47:05.120Z,2.55
2022-12-05T05:49:33.499Z,2.69
2022-12-05T05:52:01.786Z,2.66
2022-12-05T05:54:30.296Z,2.63
2022-12-05T05:56:58.628Z,2.65
2022-12-05T05:59:28.332Z,2.61
2022-12-05T06:01:56.623Z,2.62
2022-12-05T06:04:24.999Z,2.63
2022-12-05T06:06:53.335Z,2.68
2022-12-05T06:09:21.649Z,2.69
2022-12-05T06:11:50.210Z,2.70
2022-12-05T06:14:18.861Z,2.75
2022-12-05T06:16:48.762Z,2.75
2022-12-05T06:19:17.349Z,2.76
2022-12-05T06:21:45.751Z,2.80
2022-12-05T06:24:14.321Z,2.83
2022-12-05T06:26:42.783Z,2.82
2022-12-05T06:29:11.181Z,2.94
2022-12-05T06:31:39.544Z,2.88
2022-12-05T06:34:09.621Z,2.85
2022-12-05T06:36:37.900Z,2.81
2022-12-05T06:39:06.420Z,2.88
2022-12-05T06:41:34.884Z,2.80
2022-12-05T06:44:03.715Z,2.79
2022-12-05T06:46:33.171Z,2.74
2022-12-05T06:49:01.500Z,2.70
2022-12-05T06:51:33.457Z,2.69
2022-12-05T06:54:01.788Z,2.68
2022-12-05T06:56:30.063Z,2.77
2022-12-05T06:58:58.336Z,2.80
2022-12-05T07:01:42.624Z,2.86
2022-12-05T07:04:14.014Z,2.88
2022-12-05T07:06:50.159Z,3.02
2022-12-05T07:09:19.709Z,2.94
2022-12-05T07:11:48.654Z,2.85
2022-12-05T07:14:38.965Z,3.03
2022-12-05T07:17:05.850Z,3.05
2022-12-05T07:19:34.228Z,3.09
2022-12-05T07:22:04.938Z,3.18
2022-12-05T07:24:33.339Z,3.23
2022-12-05T07:27:01.560Z,3.22
2022-12-05T07:29:30.066Z,3.05
2022-12-05T07:31:58.517Z,3.04
2022-12-05T07:34:27.014Z,3.15
2022-12-05T07:36:55.303Z,3.05
2022-12-05T07:39:24.985Z,3.03
2022-12-05T07:41:53.225Z,3.11
2022-12-05T07:44:21.567Z,3.09
2022-12-05T07:46:49.843Z,3.20
2022-12-05T07:49:18.131Z,3.28
2022-12-05T07:51:46.494Z,3.31
2022-12-05T07:54:14.777Z,3.44
2022-12-05T07:56:47.781Z,3.55
2022-12-05T07:59:16.632Z,3.63
2022-12-05T08:01:44.974Z,3.60
2022-12-05T08:04:15.581Z,3.59
2022-12-05T08:06:44.464Z,3.56
2022-12-05T08:09:12.832Z,3.53
2022-12-05T08:11:41.071Z,3.63
2022-12-05T08:14:11.471Z,3.74
2022-12-05T08:16:39.859Z,3.85
2022-12-05T08:19:09.953Z,3.89
2022-12-05T08:21:38.220Z,4.09
2022-12-05T08:24:07.438Z,4.14
2022-12-05T08:26:37.410Z,4.15
2022-12-05T08:29:07.438Z,4.32
2022-12-05T08:31:40.552Z,4.26
2022-12-05T08:34:09.042Z,4.12
2022-12-05T08:36:37.784Z,4.19
2022-12-05T08:39:08.098Z,3.90
2022-12-05T08:41:36.402Z,3.80
2022-12-05T08:44:06.699Z,3.82
2022-12-05T08:46:37.818Z,3.79
2022-12-05T08:49:07.374Z,3.80
2022-12-05T08:51:36.063Z,3.96
2022-12-05T08:54:05.089Z,3.99
2022-12-05T08:56:34.081Z,4.18
2022-12-05T08:59:05.615Z,4.12
2022-12-05T09:01:38.758Z,4.18
2022-12-05T09:04:08.357Z,4.20
2022-12-05T09:06:36.650Z,3.98
2022-12-05T09:09:07.681Z,3.71
2022-12-05T09:11:40.952Z,3.84
2022-12-05T09:14:09.427Z,3.60
2022-12-05T09:16:40.642Z,3.57
2022-12-05T09:19:14.600Z,3.61
2022-12-05T09:21:43.670Z,3.52
2022-12-05T09:24:13.514Z,3.52
2022-12-05T09:26:42.577Z,3.44
2022-12-05T09:29:16.703Z,3.45
2022-12-05T09:31:47.529Z,3.57
2022-12-05T09:34:18.349Z,3.75
2022-12-05T09:37:05.539Z,3.81
2022-12-05T09:39:40.578Z,4.16
2022-12-05T09:42:36.917Z,4.40
2022-12-05T09:45:20.211Z,4.62
2022-12-05T09:47:56.338Z,4.42
2022-12-05T09:50:34.891Z,4.47
2022-12-05T09:53:11.926Z,4.65
2022-12-05T09:55:48.571Z,4.71
2022-12-05T09:58:38.922Z,4.59
2022-12-05T10:01:27.478Z,4.81
2022-12-05T10:04:26.145Z,4.50
2022-12-05T10:07:01.925Z,4.40
2022-12-05T10:09:41.870Z,4.16
2022-12-05T10:12:17.187Z,4.08
2022-12-05T10:14:53.457Z,4.22
2022-12-05T10:17:25.475Z,4.31
2022-12-05T10:19:58.803Z,4.32
2022-12-05T10:22:30.819Z,4.31
2022-12-05T10:25:02.739Z,4.50
2022-12-05T10:27:39.963Z,4.55
2022-12-05T10:30:15.723Z,4.77
2022-12-05T10:32:53.371Z,4.70
2022-12-05T10:35:24.826Z,4.63
2022-12-05T10:37:55.968Z,4.78
2022-12-05T10:40:25.892Z,4.84
2022-12-05T10:42:54.211Z,5.01
2022-12-05T10:45:24.377Z,5.17
2022-12-05T10:47:55.976Z,5.47
2022-12-05T10:50:30.675Z,5.51
2022-12-05T10:53:01.830Z,5.75
2022-12-05T10:55:32.683Z,5.77
2022-12-05T10:58:17.276Z,5.52
2022-12-05T11:00:48.467Z,5.46
2022-12-05T11:03:26.042Z,5.57
2022-12-05T11:05:57.939Z,5.64
2022-12-05T11:08:55.978Z,5.81
2022-12-05T11:11:21.661Z,5.76
2022-12-05T11:13:54.974Z,5.79
2022-12-05T11:16:26.085Z,5.66
2022-12-05T11:18:54.517Z,5.57
2022-12-05T11:21:24.323Z,5.35
2022-12-05T11:23:52.713Z,5.27
2022-12-05T11:26:37.689Z,5.36
2022-12-05T11:29:06.448Z,5.27
2022-12-05T11:31:35.302Z,5.43
2022-12-05T11:34:15.106Z,5.57
2022-12-05T11:36:48.380Z,5.43
2022-12-05T11:39:17.737Z,5.18
2022-12-05T11:41:58.804Z,5.18
2022-12-05T11:44:42.035Z,5.45
2022-12-05T11:47:19.107Z,5.69
2022-12-05T11:50:09.464Z,5.64
2022-12-05T11:52:51.765Z,5.71
2022-12-05T11:55:24.185Z,5.79
2022-12-05T11:58:25.403Z,5.68
2022-12-05T12:01:03.716Z,5.85
2022-12-05T12:03:45.068Z,5.88
2022-12-05T12:06:26.719Z,6.06
2022-12-05T12:09:10.500Z,5.70
2022-12-05T12:11:43.074Z,5.89
2022-12-05T12:14:17.513Z,5.76
2022-12-05T12:16:54.886Z,5.82
2022-12-05T12:19:34.553Z,5.81
2022-12-05T12:22:13.786Z,5.73
2022-12-05T12:24:58.832Z,5.45
2022-12-05T12:27:41.668Z,5.21
2022-12-05T12:30:15.835Z,5.16
2022-12-05T12:32:54.540Z,5.26
2022-12-05T12:35:32.842Z,4.98
2022-12-05T12:38:29.576Z,4.96
2022-12-05T12:41:03.619Z,4.96
2022-12-05T12:43:58.860Z,4.69
2022-12-05T12:46:39.486Z,4.66
2022-12-05T12:49:25.501Z,4.68
2022-12-05T12:51:55.089Z,4.63
2022-12-05T12:55:02.277Z,4.72
2022-12-05T12:57:28.834Z,4.65
2022-12-05T13:00:05.557Z,4.69
2022-12-05T13:02:37.933Z,4.62
2022-12-05T13:05:09.029Z,4.80
2022-12-05T13:07:41.780Z,4.72
2022-12-05T13:10:18.444Z,4.93
2022-12-05T13:12:48.539Z,4.89
2022-12-05T13:15:21.404Z,5.02
2022-12-05T13:17:50.624Z,4.95
2022-12-05T13:20:22.202Z,5.03
2022-12-05T13:22:52.109Z,5.28
2022-12-05T13:25:23.409Z,5.10
2022-12-05T13:27:59.070Z,5.01
2022-12-05T13:30:28.396Z,5.07
2022-12-05T13:32:58.549Z,5.02
2022-12-05T13:35:49.668Z,4.94
2022-12-05T13:38:40.442Z,4.88
2022-12-05T13:41:26.500Z,4.88
2022-12-05T13:44:06.429Z,4.81
2022-12-05T13:46:36.651Z,4.86
2022-12-05T13:49:08.848Z,4.76
2022-12-05T13:51:41.853Z,4.64
2022-12-05T13:54:13.983Z,4.63
2022-12-05T13:56:51.822Z,4.54
2022-12-05T13:59:58.127Z,4.54
2022-12-05T14:02:52.308Z,4.56
2022-12-05T14:05:41.112Z,4.62
2022-12-05T14:08:48.912Z,4.57
2022-12-05T14:11:18.196Z,4.66
2022-12-05T14:13:46.876Z,4.63
2022-12-05T14:16:49.712Z,4.53
2022-12-05T14:19:49.372Z,4.56
2022-12-05T14:22:41.552Z,4.74
2022-12-05T14:25:17.954Z,4.59
2022-12-05T14:27:52.633Z,4.54
2022-12-05T14:30:26.040Z,4.42
2022-12-05T14:32:55.388Z,4.46
2022-12-05T14:35:30.050Z,4.25
2022-12-05T14:38:01.108Z,4.18
2022-12-05T14:40:33.089Z,4.13
2022-12-05T14:43:03.289Z,4.18
2022-12-05T14:45:35.253Z,4.22
2022-12-05T14:48:06.891Z,4.29
2022-12-05T14:50:43.474Z,4.26
2022-12-05T14:53:37.728Z,4.31
2022-12-05T14:56:17.774Z,4.40
2022-12-05T14:58:50.628Z,4.30
2022-12-05T15:01:21.290Z,4.30
2022-12-05T15:04:05.006Z,4.25
2022-12-05T15:06:37.699Z,3.94
2022-12-05T15:09:36.089Z,4.08
2022-12-05T15:11:58.908Z,4.12
2022-12-05T15:14:31.407Z,4.05
2022-12-05T15:17:01.292Z,4.11
2022-12-05T15:19:32.924Z,4.15
2022-12-05T15:22:07.925Z,4.16
2022-12-05T15:24:39.806Z,4.16
2022-12-05T15:27:12.889Z,4.01
2022-12-05T15:29:41.644Z,3.90
2022-12-05T15:32:17.906Z,3.88
2022-12-05T15:34:48.594Z,3.82
2022-12-05T15:37:21.804Z,3.68
2022-12-05T15:39:56.820Z,3.81
2022-12-05T15:42:30.210Z,3.86
2022-12-05T15:45:16.039Z,3.83
2022-12-05T15:47:47.777Z,3.75
2022-12-05T15:50:16.828Z,3.79
2022-12-05T15:52:50.787Z,3.81
2022-12-05T15:55:22.204Z,3.83
2022-12-05T15:57:56.247Z,3.84
2022-12-05T16:00:26.411Z,3.87
2022-12-05T16:02:58.218Z,3.84
2022-12-05T16:05:30.141Z,3.88
2022-12-05T16:08:02.110Z,3.87
2022-12-05T16:10:32.061Z,3.82
2022-12-05T16:13:06.489Z,3.82
2022-12-05T16:15:35.361Z,3.84
2022-12-05T16:18:06.176Z,3.86
2022-12-05T16:20:36.192Z,3.89
2022-12-05T16:23:07.001Z,3.91
2022-12-05T16:25:37.244Z,3.97
2022-12-05T16:28:17.609Z,3.97
2022-12-05T16:30:59.173Z,3.96
2022-12-05T16:33:28.533Z,3.98
2022-12-05T16:35:57.153Z,4.01
2022-12-05T16:38:30.044Z,4.02
2022-12-05T16:41:00.529Z,4.00
2022-12-05T16:43:43.007Z,4.07
2022-12-05T16:46:45.920Z,4.03
2022-12-05T16:49:37.828Z,4.01
2022-12-05T16:52:15.607Z,3.97
2022-12-05T16:54:48.340Z,3.88
2022-12-05T16:57:18.722Z,3.93
2022-12-05T16:59:49.561Z,4.04
2022-12-05T17:02:21.759Z,3.97
2022-12-05T17:04:50.489Z,4.20
2022-12-05T17:07:19.559Z,4.32
2022-12-05T17:09:50.840Z,4.08
2022-12-05T17:12:24.730Z,3.87
2022-12-05T17:14:53.511Z,3.87
2022-12-05T17:17:29.257Z,3.87
2022-12-05T17:19:59.461Z,3.92
2022-12-05T17:22:28.789Z,3.92
2022-12-05T17:25:01.559Z,3.89
2022-12-05T17:27:33.795Z,3.91
2022-12-05T17:30:02.501Z,3.89
2022-12-05T17:32:31.710Z,3.92
2022-12-05T17:35:06.577Z,3.98
2022-12-05T17:37:36.322Z,4.01
2022-12-05T17:40:08.697Z,4.09
2022-12-05T17:42:38.979Z,4.06
2022-12-05T17:45:10.743Z,4.07
2022-12-05T17:47:39.208Z,4.07
2022-12-05T17:50:09.145Z,4.05
2022-12-05T17:52:38.016Z,4.06
2022-12-05T17:55:18.554Z,4.08
2022-12-05T17:57:50.157Z,4.06
2022-12-05T18:00:22.281Z,4.09
2022-12-05T18:02:52.960Z,4.12
2022-12-05T18:05:22.204Z,4.11
2022-12-05T18:07:52.021Z,4.17
2022-12-05T18:10:24.211Z,4.07
2022-12-05T18:12:57.355Z,4.10
2022-12-05T18:15:26.049Z,4.04
2022-12-05T18:17:56.107Z,4.08
2022-12-05T18:20:25.482Z,4.16
2022-12-05T18:22:55.362Z,4.11
2022-12-05T18:25:26.856Z,4.13
2022-12-05T18:27:56.623Z,4.17
2022-12-05T18:30:25.965Z,4.12
2022-12-05T18:32:55.417Z,4.07
2022-12-05T18:35:40.700Z,4.08
2022-12-05T18:38:15.906Z,4.07
2022-12-05T18:40:47.732Z,4.10
2022-12-05T18:43:17.939Z,4.14
2022-12-05T18:45:47.657Z,4.03
2022-12-05T18:48:38.750Z,4.06
2022-12-05T18:51:13.068Z,4.09
2022-12-05T18:53:52.897Z,4.06
2022-12-05T18:56:28.324Z,4.00
2022-12-05T18:59:00.536Z,4.03
2022-12-05T19:01:31.574Z,4.07
2022-12-05T19:04:06.074Z,4.14
2022-12-05T19:06:52.348Z,4.05
2022-12-05T19:09:26.964Z,4.03
2022-12-05T19:12:03.930Z,4.07
2022-12-05T19:17:55.914Z,3.93
2022-12-05T19:20:29.368Z,3.92
2022-12-05T19:23:03.256Z,3.98
2022-12-05T19:28:59.902Z,3.97
2022-12-05T19:32:06.642Z,3.97
2022-12-05T19:35:05.469Z,3.94
2022-12-05T19:37:37.394Z,3.98
2022-12-05T19:40:18.580Z,3.99
2022-12-05T19:42:49.570Z,3.94
2022-12-05T19:45:22.143Z,3.94
2022-12-05T19:47:52.386Z,3.99
2022-12-05T19:50:29.188Z,3.92
2022-12-05T19:53:08.872Z,3.90
2022-12-05T19:55:41.361Z,3.89
2022-12-05T19:58:12.065Z,3.89
2022-12-05T20:00:49.556Z,3.92
2022-12-05T20:03:19.325Z,3.91
2022-12-05T20:05:58.966Z,3.88
2022-12-05T20:08:38.825Z,3.92
2022-12-05T20:11:12.952Z,3.96
2022-12-05T20:13:47.864Z,3.91
2022-12-05T20:16:22.361Z,3.85
2022-12-05T20:18:53.370Z,3.85
2022-12-05T20:21:24.405Z,3.83
2022-12-05T20:23:55.203Z,3.75
2022-12-05T20:26:28.130Z,3.86
2022-12-05T20:28:59.440Z,3.87
2022-12-05T20:31:37.165Z,3.85
2022-12-05T20:34:07.914Z,3.92
2022-12-05T20:36:39.030Z,3.85
2022-12-05T20:39:18.085Z,3.66
2022-12-05T20:41:51.053Z,3.66
2022-12-05T20:44:20.902Z,3.74
2022-12-05T20:46:55.871Z,3.74
2022-12-05T20:49:26.556Z,3.86
2022-12-05T20:51:58.265Z,3.83
2022-12-05T20:54:28.153Z,3.84
2022-12-05T20:56:58.718Z,3.85
2022-12-05T20:59:28.189Z,3.82
2022-12-05T21:01:59.253Z,3.77
2022-12-05T21:04:28.977Z,3.82
2022-12-05T21:06:58.807Z,3.85
2022-12-05T21:09:30.504Z,3.89
2022-12-05T21:12:00.967Z,3.65
2022-12-05T21:14:29.701Z,3.69
2022-12-05T21:17:01.668Z,3.69
2022-12-05T21:19:31.702Z,3.55
2022-12-05T21:22:01.204Z,3.63
2022-12-05T21:24:30.143Z,3.72
2022-12-05T21:26:58.556Z,3.72
2022-12-05T21:29:27.401Z,3.96
2022-12-05T21:31:55.697Z,4.04
2022-12-05T21:34:25.456Z,3.86
2022-12-05T21:36:53.911Z,3.82
2022-12-05T21:39:23.106Z,3.91
2022-12-05T21:41:51.552Z,3.85
2022-12-05T21:44:20.403Z,3.83
2022-12-05T21:46:49.614Z,3.69
2022-12-05T21:49:18.198Z,3.69
2022-12-05T21:51:47.950Z,3.71
2022-12-05T21:54:16.529Z,3.70
2022-12-05T21:56:45.372Z,3.69
2022-12-05T21:59:13.789Z,3.82
2022-12-05T22:01:42.196Z,3.90
2022-12-05T22:04:10.580Z,3.90
2022-12-05T22:06:40.571Z,3.75
2022-12-05T22:09:12.141Z,4.03
2022-12-05T22:11:41.850Z,3.69
2022-12-05T22:14:10.621Z,3.76
2022-12-05T22:16:38.962Z,4.07
2022-12-05T22:19:07.547Z,3.63
2022-12-05T22:21:35.998Z,3.82
2022-12-05T22:24:04.517Z,3.74
2022-12-05T22:26:34.312Z,3.83
2022-12-05T22:29:02.656Z,3.75
2022-12-05T22:31:31.125Z,3.67
2022-12-05T22:34:00.191Z,3.85
2022-12-05T22:36:28.566Z,3.75
2022-12-05T22:38:57.270Z,3.76
2022-12-05T22:41:27.119Z,4.05
2022-12-05T22:43:58.375Z,4.01
2022-12-05T22:46:29.341Z,4.09
2022-12-05T22:48:58.713Z,4.33
2022-12-05T22:51:28.123Z,4.34
2022-12-05T22:53:57.118Z,4.09
2022-12-05T22:56:27.783Z,3.74
2022-12-05T22:59:01.926Z,3.54
2022-12-05T23:01:31.804Z,3.76
2022-12-05T23:04:01.328Z,3.67
2022-12-05T23:06:31.091Z,3.66
2022-12-05T23:08:59.886Z,3.62
2022-12-05T23:11:29.848Z,3.61
2022-12-05T23:14:02.183Z,3.70
2022-12-05T23:16:33.276Z,3.66
2022-12-05T23:19:04.047Z,3.61
2022-12-05T23:21:34.386Z,3.64
2022-12-05T23:24:09.090Z,3.55
2022-12-05T23:26:39.461Z,3.72
2022-12-05T23:29:12.154Z,3.88
2022-12-05T23:31:40.669Z,3.75
2022-12-05T23:34:09.761Z,3.98
2022-12-05T23:36:39.230Z,3.68
2022-12-05T23:39:07.960Z,3.76
2022-12-05T23:41:36.469Z,3.57
2022-12-05T23:44:07.278Z,3.36
2022-12-05T23:46:38.040Z,3.27
2022-12-05T23:49:06.815Z,3.42
2022-12-05T23:51:40.211Z,3.59
2022-12-05T23:54:11.054Z,3.28
2022-12-05T23:56:40.332Z,3.26
2022-12-05T23:59:10.011Z,3.16
